Time;durP1;ratioP1;P1;durP2;ratioP2;P2;SDS_P1;SDS_P2;PMS_P1;PMS_P2;Temp;Humidity;BMP_temperature;BMP_pressure;BME280_temperature;BME280_humidity;BME280_pressure;Samples;Min_cycle;Max_cycle;Signal;HPM_P1;HPM_P2
2021/10/17 00:00:00;;;;;;;27.75;16.37;;;;;;;8.61;86.86;100048.06;1781419;78;20989;-75
2021/10/17 00:02:26;;;;;;;21.90;15.45;;;;;;;8.64;86.84;100050.80;1832266;78;21594;-76
2021/10/17 00:04:53;;;;;;;23.60;15.72;;;;;;;8.66;86.73;100044.17;1793060;79;20885;-76
2021/10/17 00:07:19;;;;;;;19.37;15.55;;;;;;;8.70;86.75;100041.84;1780559;79;21073;-77
2021/10/17 00:09:45;;;;;;;20.52;14.85;;;;;;;8.70;86.48;100039.98;1799580;79;20962;-78
2021/10/17 00:12:11;;;;;;;22.50;15.13;;;;;;;8.71;86.45;100042.14;1776251;79;21538;-76
2021/10/17 00:14:38;;;;;;;25.48;18.07;;;;;;;8.68;86.36;100035.91;1776337;79;21022;-76
2021/10/17 00:17:05;;;;;;;19.67;14.45;;;;;;;8.67;86.33;100040.45;1798970;79;21026;-76
2021/10/17 00:19:31;;;;;;;25.57;15.40;;;;;;;8.66;86.26;100039.33;1799781;78;20916;-76
2021/10/17 00:21:58;;;;;;;27.22;17.60;;;;;;;8.63;86.26;100045.16;1799261;79;20975;-77
2021/10/17 00:24:24;;;;;;;25.00;17.15;;;;;;;8.61;86.29;100051.27;1798726;79;21480;-75
2021/10/17 00:26:50;;;;;;;23.02;15.95;;;;;;;8.56;86.32;100040.41;1775529;80;21029;-75
2021/10/17 00:29:17;;;;;;;24.43;15.50;;;;;;;8.53;86.44;100046.23;1775391;80;20917;-74
2021/10/17 00:31:43;;;;;;;19.05;15.05;;;;;;;8.48;86.52;100048.77;1778984;79;21002;-75
2021/10/17 00:34:10;;;;;;;20.60;16.30;;;;;;;8.45;86.68;100053.23;1780847;79;21051;-78
2021/10/17 00:36:36;;;;;;;24.92;16.25;;;;;;;8.41;86.89;100045.35;1775615;80;21063;-77
2021/10/17 00:39:04;;;;;;;22.98;16.93;;;;;;;8.39;87.17;100047.46;1797103;78;21063;-78
2021/10/17 00:41:31;;;;;;;24.47;15.03;;;;;;;8.39;87.35;100047.46;1799058;79;21038;-77
2021/10/17 00:44:01;;;;;;;23.55;16.23;;;;;;;8.39;87.41;100040.76;1798950;79;21585;-77
2021/10/17 00:46:29;;;;;;;22.02;15.18;;;;;;;8.37;87.49;100035.61;1794289;79;21004;-77
2021/10/17 00:48:56;;;;;;;25.30;15.35;;;;;;;8.34;87.62;100044.13;1775196;80;20932;-76
2021/10/17 00:51:22;;;;;;;23.22;15.93;;;;;;;8.35;87.78;100043.05;1778405;79;21024;-76
2021/10/17 00:53:48;;;;;;;26.05;16.87;;;;;;;8.36;87.84;100043.35;1805799;79;21029;-76
2021/10/17 00:56:14;;;;;;;27.50;17.65;;;;;;;8.37;87.87;100039.63;1804338;79;21551;-77
2021/10/17 00:58:41;;;;;;;23.47;15.05;;;;;;;8.38;87.86;100039.94;1817595;77;20882;-80
2021/10/17 01:01:07;;;;;;;20.75;14.38;;;;;;;8.38;87.85;100043.14;1803173;79;21059;-75
2021/10/17 01:03:33;;;;;;;22.82;14.58;;;;;;;8.37;87.89;100046.86;1803362;79;21731;-74
2021/10/17 01:06:00;;;;;;;22.05;15.65;;;;;;;8.38;87.89;100042.62;1772252;77;21536;-74
2021/10/17 01:08:27;;;;;;;21.05;15.08;;;;;;;8.41;87.87;100045.35;1846821;77;20960;-75
2021/10/17 01:10:57;;;;;;;24.12;13.95;;;;;;;8.42;87.77;100044.31;1797128;79;21014;-74
2021/10/17 01:13:24;;;;;;;21.42;16.52;;;;;;;8.41;87.72;100035.97;1810038;79;21023;-74
2021/10/17 01:15:55;;;;;;;19.90;14.73;;;;;;;8.40;87.71;100039.17;1800321;77;21103;-77
2021/10/17 01:18:24;;;;;;;20.68;14.80;;;;;;;8.38;87.65;100043.95;1798205;79;20984;-77
2021/10/17 01:20:53;;;;;;;27.07;15.20;;;;;;;8.37;87.72;100043.66;1809919;79;20974;-76
2021/10/17 01:23:20;;;;;;;20.08;15.75;;;;;;;8.40;87.76;100047.73;1809732;79;21007;-76
2021/10/17 01:25:47;;;;;;;19.75;15.32;;;;;;;8.43;87.61;100038.73;1776144;79;21031;-75
2021/10/17 01:28:14;;;;;;;19.23;14.73;;;;;;;8.46;87.47;100046.83;1778208;79;21084;-77
2021/10/17 01:30:40;;;;;;;28.80;16.10;;;;;;;8.46;87.37;100041.47;1778209;79;21007;-76
2021/10/17 01:33:07;;;;;;;23.10;13.18;;;;;;;8.46;87.27;100039.61;1778300;79;21001;-76
2021/10/17 01:35:34;;;;;;;18.98;14.40;;;;;;;8.49;87.07;100039.14;1812436;77;21109;-76
2021/10/17 01:38:00;;;;;;;23.18;15.48;;;;;;;8.51;86.90;100035.73;1799349;79;21040;-76
2021/10/17 01:40:27;;;;;;;20.75;14.18;;;;;;;8.54;86.74;100039.80;1768038;80;21044;-77
2021/10/17 01:42:54;;;;;;;19.52;14.58;;;;;;;8.54;86.47;100033.92;1768322;80;20895;-77
2021/10/17 01:45:21;;;;;;;19.27;14.53;;;;;;;8.52;86.30;100040.57;1798954;79;20930;-76
2021/10/17 01:47:50;;;;;;;21.37;14.75;;;;;;;8.49;86.23;100039.70;1766989;79;20892;-77
2021/10/17 01:50:19;;;;;;;17.15;13.22;;;;;;;8.46;86.25;100039.61;1798968;79;20977;-76
2021/10/17 01:52:46;;;;;;;26.23;15.08;;;;;;;8.43;86.24;100040.59;1774922;79;21055;-75
2021/10/17 01:55:13;;;;;;;23.55;15.48;;;;;;;8.43;86.24;100037.40;1806443;78;21505;-75
2021/10/17 01:57:40;;;;;;;22.58;14.65;;;;;;;8.43;86.06;100045.44;1793557;79;21005;-75
2021/10/17 02:00:08;;;;;;;21.25;14.18;;;;;;;8.39;86.05;100046.12;1793550;79;21516;-76
2021/10/17 02:02:41;;;;;;;18.50;12.95;;;;;;;8.33;86.15;100049.70;1795743;79;21072;-78
2021/10/17 02:05:09;;;;;;;24.57;16.25;;;;;;;8.22;86.31;100048.04;1796595;79;21042;-79
2021/10/17 02:07:37;;;;;;;19.90;12.95;;;;;;;8.15;86.52;100054.54;1776852;79;21047;-78
2021/10/17 02:10:05;;;;;;;20.65;13.95;;;;;;;8.08;86.78;100057.28;1781214;79;21554;-77
2021/10/17 02:12:32;;;;;;;22.27;15.08;;;;;;;8.07;86.97;100052.96;1800341;78;21536;-78
2021/10/17 02:15:04;;;;;;;22.30;15.25;;;;;;;8.06;87.03;100050.50;1799263;79;21464;-78
2021/10/17 02:17:31;;;;;;;19.30;13.72;;;;;;;8.04;87.06;100053.94;1799587;78;21517;-78
2021/10/17 02:19:59;;;;;;;19.85;13.05;;;;;;;8.04;87.11;100058.78;1799201;79;21574;-75
2021/10/17 02:22:26;;;;;;;17.55;14.07;;;;;;;8.06;87.21;100066.58;1781188;79;21471;-76
2021/10/17 02:24:52;;;;;;;17.12;14.03;;;;;;;8.08;87.24;100055.13;1780369;79;21543;-77
2021/10/17 02:27:18;;;;;;;19.20;14.50;;;;;;;8.08;87.14;100058.63;1780048;79;20971;-74
2021/10/17 02:29:47;;;;;;;16.65;12.73;;;;;;;8.08;87.10;100061.30;1799215;79;21399;-77
2021/10/17 02:32:15;;;;;;;18.35;13.20;;;;;;;8.07;87.04;100062.34;1767965;78;21471;-77
2021/10/17 02:34:41;;;;;;;16.37;12.13;;;;;;;8.07;87.10;100064.20;1796306;79;20905;-77
2021/10/17 02:37:08;;;;;;;21.20;13.83;;;;;;;8.07;87.09;100066.88;1775557;80;21000;-77
2021/10/17 02:39:35;;;;;;;18.32;12.78;;;;;;;8.10;86.88;100066.45;1779353;79;21007;-77
2021/10/17 02:42:02;;;;;;;12.37;10.50;;;;;;;8.13;86.64;100067.33;1798942;79;21190;-78
2021/10/17 02:44:30;;;;;;;21.15;10.85;;;;;;;8.16;86.25;100065.01;1798497;79;21559;-78
2021/10/17 02:46:57;;;;;;;15.50;10.78;;;;;;;8.20;85.94;100064.85;1799446;79;21045;-78
2021/10/17 02:49:25;;;;;;;15.95;11.35;;;;;;;8.23;85.75;100065.76;1799343;79;21029;-78
2021/10/17 02:51:52;;;;;;;18.05;11.70;;;;;;;8.28;85.66;100063.74;1807059;77;21614;-76
2021/10/17 02:54:19;;;;;;;17.75;10.78;;;;;;;8.34;85.50;100067.42;1785735;79;21084;-77
2021/10/17 02:56:47;;;;;;;13.95;9.73;;;;;;;8.38;85.27;100064.58;1789791;79;20886;-76
2021/10/17 02:59:15;;;;;;;20.27;13.22;;;;;;;8.40;85.08;100063.30;1799657;79;20990;-76
2021/10/17 03:01:41;;;;;;;17.65;12.37;;;;;;;8.41;84.90;100064.11;1764185;80;20999;-77
2021/10/17 03:04:08;;;;;;;16.20;12.20;;;;;;;8.40;84.81;100065.15;1795341;79;20899;-76
2021/10/17 03:06:35;;;;;;;17.57;12.00;;;;;;;8.40;84.69;100061.95;1779200;79;21924;-78
2021/10/17 03:09:01;;;;;;;18.25;12.53;;;;;;;8.39;84.54;100065.70;1780662;79;22436;-78
2021/10/17 03:11:30;;;;;;;21.27;12.78;;;;;;;8.38;84.46;100064.58;1796832;77;21035;-77
2021/10/17 03:13:58;;;;;;;15.63;12.20;;;;;;;8.39;84.46;100069.72;1765387;79;21018;-77
2021/10/17 03:16:26;;;;;;;21.55;11.85;;;;;;;8.43;84.30;100068.22;1805962;79;21042;-75
2021/10/17 03:18:53;;;;;;;15.45;11.57;;;;;;;8.44;84.07;100069.04;1791002;79;21812;-75
2021/10/17 03:21:20;;;;;;;18.98;13.03;;;;;;;8.45;83.90;100067.45;1776091;80;20942;-74
2021/10/17 03:23:47;;;;;;;16.65;12.93;;;;;;;8.45;83.72;100067.97;1787627;80;21120;-74
2021/10/17 03:26:13;;;;;;;16.00;11.20;;;;;;;8.43;83.60;100070.90;1791257;79;21450;-73
2021/10/17 03:28:41;;;;;;;17.60;11.90;;;;;;;8.43;83.50;100070.08;1776984;79;20977;-72
2021/10/17 03:31:08;;;;;;;18.57;11.43;;;;;;;8.41;83.45;100071.64;1806144;77;21486;-75
2021/10/17 03:33:38;;;;;;;17.17;12.13;;;;;;;8.41;83.45;100063.59;1812609;77;20960;-74
2021/10/17 03:36:06;;;;;;;21.60;12.68;;;;;;;8.42;83.43;100063.89;1815264;78;21552;-74
2021/10/17 03:38:34;;;;;;;16.17;11.68;;;;;;;8.45;83.40;100065.29;1807067;79;21022;-73
2021/10/17 03:41:01;;;;;;;15.10;12.55;;;;;;;8.45;83.31;100067.45;1786792;79;21027;-74
2021/10/17 03:43:28;;;;;;;19.30;13.88;;;;;;;8.44;83.17;100063.68;1786824;79;21528;-74
2021/10/17 03:45:55;;;;;;;21.02;12.37;;;;;;;8.41;83.14;100062.25;1796197;79;20932;-77
2021/10/17 03:48:23;;;;;;;15.53;11.20;;;;;;;8.38;83.13;100064.58;1795229;79;21567;-74
2021/10/17 03:50:50;;;;;;;17.42;11.73;;;;;;;8.34;83.12;100065.56;1786703;77;21012;-76
2021/10/17 03:53:17;;;;;;;18.00;12.88;;;;;;;8.31;83.13;100067.33;1814698;77;20905;-76
2021/10/17 03:55:44;;;;;;;15.70;11.48;;;;;;;8.29;83.24;100070.75;1790242;78;21018;-76
2021/10/17 03:58:14;;;;;;;13.68;11.00;;;;;;;8.31;83.34;100065.99;1801855;79;46680;-73
2021/10/17 04:00:40;;;;;;;16.40;11.45;;;;;;;8.30;83.23;100071.88;1795177;80;21112;-73
2021/10/17 04:03:07;;;;;;;15.32;10.48;;;;;;;8.30;83.15;100075.89;1774842;80;21075;-74
2021/10/17 04:05:35;;;;;;;18.02;11.57;;;;;;;8.27;83.17;100072.30;1783911;79;21058;-74
2021/10/17 04:08:02;;;;;;;22.62;12.00;;;;;;;8.25;83.16;100071.69;1786601;79;21006;-75
2021/10/17 04:10:30;;;;;;;17.45;11.18;;;;;;;8.23;83.23;100075.14;1786565;79;20928;-73
2021/10/17 04:12:57;;;;;;;17.10;9.80;;;;;;;8.23;83.31;100076.48;1807861;77;20931;-72
2021/10/17 04:15:25;;;;;;;14.98;10.15;;;;;;;8.23;83.40;100075.14;1798122;79;20960;-74
2021/10/17 04:17:52;;;;;;;19.73;11.48;;;;;;;8.26;83.43;100072.52;1775905;80;24194;-72
2021/10/17 04:20:18;;;;;;;13.68;11.55;;;;;;;8.25;83.44;100078.91;1795280;80;21551;-72
2021/10/17 04:22:46;;;;;;;19.50;11.33;;;;;;;8.26;83.48;100079.22;1774739;80;20980;-74
2021/10/17 04:25:12;;;;;;;14.98;10.70;;;;;;;8.25;83.50;100074.89;1780055;79;21012;-74
2021/10/17 04:27:38;;;;;;;20.70;11.25;;;;;;;8.22;83.55;100078.85;1786417;79;20947;-74
2021/10/17 04:30:07;;;;;;;20.92;10.25;;;;;;;8.23;83.70;100078.34;1806756;79;20990;-73
2021/10/17 04:32:34;;;;;;;17.25;12.33;;;;;;;8.23;83.80;100083.70;1807146;77;21098;-73
2021/10/17 04:35:00;;;;;;;15.93;11.85;;;;;;;8.23;83.87;100077.81;1786228;79;20994;-73
2021/10/17 04:37:29;;;;;;;12.30;9.13;;;;;;;8.27;83.99;100084.36;1806774;79;20971;-75
2021/10/17 04:39:56;;;;;;;13.90;10.10;;;;;;;8.31;83.94;100087.42;1800240;79;21090;-74
2021/10/17 04:42:24;;;;;;;12.85;9.40;;;;;;;8.33;83.90;100084.02;1800256;79;21019;-74
2021/10/17 04:44:52;;;;;;;18.05;11.97;;;;;;;8.33;83.71;100078.66;1798677;79;21536;-74
2021/10/17 04:47:18;;;;;;;13.88;12.00;;;;;;;8.30;83.65;100092.48;1794791;79;21020;-72
2021/10/17 04:49:45;;;;;;;13.43;10.30;;;;;;;8.27;83.70;100092.91;1795135;80;21097;-74
2021/10/17 04:52:11;;;;;;;16.32;11.12;;;;;;;8.24;83.78;100096.88;1806576;77;21054;-73
2021/10/17 04:54:38;;;;;;;15.25;10.28;;;;;;;8.21;83.88;100093.28;1777707;79;21082;-75
2021/10/17 04:57:04;;;;;;;21.00;13.10;;;;;;;8.18;84.01;100099.62;1807210;79;21876;-76
2021/10/17 04:59:33;;;;;;;15.05;11.78;;;;;;;8.14;84.13;100095.77;1802072;79;20912;-73
2021/10/17 05:02:02;;;;;;;16.48;11.03;;;;;;;8.11;84.25;100095.67;1766774;80;21537;-76
2021/10/17 05:04:29;;;;;;;19.07;12.47;;;;;;;8.10;84.30;100094.06;1766639;80;21541;-75
2021/10/17 05:06:56;;;;;;;17.48;11.22;;;;;;;8.09;84.46;100096.95;1769339;79;20991;-77
2021/10/17 05:09:22;;;;;;;20.08;13.85;;;;;;;8.12;84.57;100096.48;1807834;79;21461;-73
2021/10/17 05:11:49;;;;;;;16.02;12.13;;;;;;;8.15;84.58;100099.53;1808587;79;21039;-74
2021/10/17 05:14:16;;;;;;;15.35;12.15;;;;;;;8.19;84.52;100100.75;1838695;78;20936;-80
2021/10/17 05:16:44;;;;;;;16.45;11.93;;;;;;;8.18;84.38;100104.98;1790135;79;21016;-73
2021/10/17 05:19:10;;;;;;;19.45;13.22;;;;;;;8.16;84.42;100103.86;1804933;79;21026;-75
2021/10/17 05:21:38;;;;;;;19.12;11.43;;;;;;;8.15;84.53;100098.74;1778287;79;21029;-74
2021/10/17 05:24:04;;;;;;;14.23;11.00;;;;;;;8.17;84.55;100103.34;1778580;79;21094;-74
2021/10/17 05:26:31;;;;;;;15.45;11.50;;;;;;;8.16;84.56;100103.86;1807927;79;21570;-72
2021/10/17 05:28:58;;;;;;;20.52;12.20;;;;;;;8.16;84.65;100108.39;1807565;79;21572;-73
2021/10/17 05:31:24;;;;;;;18.15;11.97;;;;;;;8.15;84.76;100108.13;1778638;79;21031;-74
2021/10/17 05:33:52;;;;;;;19.75;11.80;;;;;;;8.19;84.84;100111.47;1807812;79;21138;-74
2021/10/17 05:36:20;;;;;;;16.00;12.73;;;;;;;8.21;84.86;100108.02;1821747;78;20952;-77
2021/10/17 05:38:48;;;;;;;19.57;12.58;;;;;;;8.26;84.90;100112.70;1812929;78;21032;-71
2021/10/17 05:41:14;;;;;;;19.32;12.30;;;;;;;8.30;84.85;100112.58;1841168;78;21016;-73
2021/10/17 05:43:41;;;;;;;15.15;12.10;;;;;;;8.32;84.83;100117.21;1840921;78;21477;-72
2021/10/17 05:46:08;;;;;;;16.90;12.13;;;;;;;8.32;84.76;100114.53;1792188;78;21825;-75
2021/10/17 05:48:34;;;;;;;21.75;13.70;;;;;;;8.32;84.83;100123.91;1739251;80;21561;-74
2021/10/17 05:51:01;;;;;;;18.60;13.10;;;;;;;8.31;84.97;100118.25;1796036;79;21058;-73
2021/10/17 05:53:28;;;;;;;22.50;12.03;;;;;;;8.33;85.03;100120.71;1773390;80;21019;-72
2021/10/17 05:55:55;;;;;;;18.62;13.62;;;;;;;8.33;85.10;100128.23;1790462;78;20989;-73
2021/10/17 05:58:21;;;;;;;22.00;13.45;;;;;;;8.33;85.06;100124.22;1803737;78;21026;-73
2021/10/17 06:00:49;;;;;;;21.20;12.47;;;;;;;8.29;85.05;100125.68;1804494;78;20988;-72
2021/10/17 06:03:15;;;;;;;17.67;12.15;;;;;;;8.25;85.24;100127.14;1832607;78;20974;-73
2021/10/17 06:06:06;;;;;;;23.22;12.40;;;;;;;8.23;85.32;100125.23;1832396;77;20909;-73
2021/10/17 06:08:31;;;;;;;18.23;12.35;;;;;;;8.21;85.41;100125.44;1831576;78;21013;-76
2021/10/17 06:10:57;;;;;;;17.00;12.47;;;;;;;8.22;85.46;100128.42;1781511;79;21615;-74
2021/10/17 06:13:23;;;;;;;18.02;11.97;;;;;;;8.24;85.47;100131.71;1796897;79;21031;-76
2021/10/17 06:15:50;;;;;;;12.95;10.43;;;;;;;8.24;85.53;100141.09;1779394;79;21144;-77
2021/10/17 06:18:17;;;;;;;14.50;10.32;;;;;;;8.24;85.53;100132.23;1797671;79;20908;-75
2021/10/17 06:20:45;;;;;;;15.80;12.13;;;;;;;8.25;85.59;100144.56;1776745;79;20952;-76
2021/10/17 06:23:11;;;;;;;19.57;11.85;;;;;;;8.25;85.62;100125.80;1773077;80;21614;-76
2021/10/17 06:25:38;;;;;;;16.95;11.63;;;;;;;8.27;85.64;100131.77;1749924;81;20943;-74
2021/10/17 06:28:06;;;;;;;12.47;10.28;;;;;;;8.30;85.53;100136.70;1767659;81;20986;-74
2021/10/17 06:30:34;;;;;;;23.70;13.85;;;;;;;8.34;85.57;100139.78;1797111;78;21030;-75
2021/10/17 06:33:00;;;;;;;17.17;10.98;;;;;;;8.37;85.48;100131.28;1795776;79;21075;-79
2021/10/17 06:35:27;;;;;;;17.07;11.50;;;;;;;8.42;85.31;100131.42;1797466;79;21467;-75
2021/10/17 06:37:53;;;;;;;19.45;13.18;;;;;;;8.42;85.14;100126.88;1800039;78;20987;-73
2021/10/17 06:40:20;;;;;;;18.37;12.60;;;;;;;8.45;85.04;100133.64;1777181;79;21556;-76
2021/10/17 06:42:47;;;;;;;15.93;12.50;;;;;;;8.48;84.95;100132.69;1799596;79;21070;-77
2021/10/17 06:45:15;;;;;;;21.12;11.85;;;;;;;8.56;84.90;100134.23;1771760;80;20971;-76
2021/10/17 06:47:42;;;;;;;13.45;10.43;;;;;;;8.62;84.63;100132.82;1775655;80;21139;-75
2021/10/17 06:50:09;;;;;;;17.25;12.50;;;;;;;8.68;84.34;100134.58;1775461;80;21532;-76
2021/10/17 06:52:37;;;;;;;15.13;10.10;;;;;;;8.72;84.11;100128.26;1766986;79;21035;-74
2021/10/17 06:55:04;;;;;;;19.98;11.05;;;;;;;8.77;84.07;100130.26;1778774;79;21018;-75
2021/10/17 06:57:31;;;;;;;17.95;9.98;;;;;;;8.83;83.88;100131.48;1774221;79;21042;-76
2021/10/17 06:59:57;;;;;;;16.50;10.45;;;;;;;8.92;83.72;100140.06;1828744;78;21061;-75
2021/10/17 07:02:25;;;;;;;18.02;10.53;;;;;;;8.98;83.34;100138.60;1802873;78;21059;-74
2021/10/17 07:04:51;;;;;;;16.48;10.40;;;;;;;9.03;82.92;100134.71;1791989;79;21050;-74
2021/10/17 07:07:18;;;;;;;18.50;10.32;;;;;;;9.08;82.50;100133.51;1784293;78;20925;-74
2021/10/17 07:09:44;;;;;;;13.18;8.78;;;;;;;9.13;82.11;100130.13;1809802;78;21018;-76
2021/10/17 07:12:14;;;;;;;14.80;10.23;;;;;;;9.16;82.05;100133.69;1840819;78;21581;-75
2021/10/17 07:14:41;;;;;;;14.07;9.30;;;;;;;9.18;81.73;100135.63;1786521;78;20976;-76
2021/10/17 07:17:19;;;;;;;22.10;12.18;;;;;;;9.21;81.60;100145.89;1800163;78;20994;-75
2021/10/17 07:19:46;;;;;;;14.20;10.88;;;;;;;9.28;81.33;100137.75;1822961;78;20994;-73
2021/10/17 07:22:12;;;;;;;19.20;11.35;;;;;;;9.35;81.10;100143.30;1821800;78;21008;-75
2021/10/17 07:24:40;;;;;;;21.48;11.55;;;;;;;9.41;80.94;100145.07;1840704;78;21474;-74
2021/10/17 07:27:07;;;;;;;16.67;11.45;;;;;;;9.48;80.69;100140.42;1810337;78;21607;-76
2021/10/17 07:29:33;;;;;;;12.93;9.50;;;;;;;9.55;80.53;100144.33;1778397;79;21003;-73
2021/10/17 07:32:00;;;;;;;12.25;10.55;;;;;;;9.61;80.22;100142.06;1807213;79;21003;-75
2021/10/17 07:34:26;;;;;;;17.52;10.78;;;;;;;9.67;80.09;100143.00;1805324;79;20979;-78
2021/10/17 07:36:52;;;;;;;12.18;10.08;;;;;;;9.70;79.88;100148.72;1807379;79;23338;-77
2021/10/17 07:39:21;;;;;;;15.58;9.30;;;;;;;9.75;78.93;100141.31;1804576;79;20936;-77
2021/10/17 07:41:49;;;;;;;17.15;9.93;;;;;;;9.79;78.44;100145.98;1807435;79;21473;-75
2021/10/17 07:44:16;;;;;;;11.55;8.40;;;;;;;9.84;77.99;100148.78;1807289;79;21066;-75
2021/10/17 07:46:44;;;;;;;12.60;9.23;;;;;;;9.89;77.72;100143.53;1788179;79;21058;-76
2021/10/17 07:49:11;;;;;;;12.63;8.73;;;;;;;9.92;77.25;100145.77;1807452;79;22079;-74
2021/10/17 07:51:37;;;;;;;13.43;8.78;;;;;;;9.97;76.89;100145.06;1806415;79;21103;-77
2021/10/17 07:54:08;;;;;;;15.53;7.75;;;;;;;10.01;76.42;100152.42;1793769;79;21489;-76
2021/10/17 07:56:37;;;;;;;9.00;7.35;;;;;;;10.05;76.27;100146.04;1790414;80;21055;-77
2021/10/17 07:59:03;;;;;;;14.00;7.28;;;;;;;10.12;75.65;100143.23;1769880;80;20996;-80
2021/10/17 08:01:31;;;;;;;13.45;7.10;;;;;;;10.17;74.90;100145.52;1790864;79;21091;-77
2021/10/17 08:04:01;;;;;;;9.35;7.25;;;;;;;10.25;74.32;100152.42;1790100;80;21003;-78
2021/10/17 08:06:35;;;;;;;9.23;6.72;;;;;;;10.33;73.86;100154.73;1799310;78;21448;-80
2021/10/17 08:09:02;;;;;;;18.48;7.10;;;;;;;10.40;73.31;100137.95;1820891;78;21601;-80
2021/10/17 08:11:29;;;;;;;14.13;7.40;;;;;;;10.48;72.99;100135.70;1837567;78;21032;-78
2021/10/17 08:13:58;;;;;;;7.10;5.95;;;;;;;10.55;72.45;100147.66;1795188;79;21886;-79
2021/10/17 08:16:26;;;;;;;13.25;7.35;;;;;;;10.61;72.03;100149.92;1780854;79;21017;-78
2021/10/17 08:18:54;;;;;;;12.60;7.28;;;;;;;10.63;71.35;100149.99;1780950;79;20932;-75
2021/10/17 08:21:21;;;;;;;11.08;6.33;;;;;;;10.66;71.32;100140.61;1801010;79;21079;-75
2021/10/17 08:23:49;;;;;;;11.83;6.55;;;;;;;10.66;70.73;100144.64;1794108;79;21074;-77
2021/10/17 08:26:16;;;;;;;13.13;5.90;;;;;;;10.64;70.27;100150.28;1802343;78;21284;-72
2021/10/17 08:28:44;;;;;;;11.33;6.78;;;;;;;10.62;69.74;100139.46;1807169;78;20980;-72
2021/10/17 08:31:13;;;;;;;12.82;6.22;;;;;;;10.62;69.85;100132.21;1806067;78;21067;-70
2021/10/17 08:33:41;;;;;;;8.88;5.47;;;;;;;10.66;70.11;100136.05;1837942;78;21497;-73
2021/10/17 08:36:08;;;;;;;9.35;6.85;;;;;;;10.72;70.09;100140.48;1807495;78;21020;-72
2021/10/17 08:38:35;;;;;;;13.15;6.42;;;;;;;10.79;69.95;100137.11;1814485;78;22137;-72
2021/10/17 08:41:03;;;;;;;10.00;6.03;;;;;;;10.86;69.75;100135.63;1791964;79;21035;-70
2021/10/17 08:43:35;;;;;;;12.58;6.62;;;;;;;10.90;69.40;100155.09;1766018;81;20979;-71
2021/10/17 08:46:13;;;;;;;9.08;6.58;;;;;;;10.94;69.11;100139.27;1627629;84;21526;-86
2021/10/17 08:48:41;;;;;;;12.70;6.95;;;;;;;10.94;69.13;100140.09;1714689;83;20940;-71
2021/10/17 08:51:08;;;;;;;11.50;5.90;;;;;;;10.94;68.64;100157.58;1663831;83;21308;-75
2021/10/17 08:53:43;;;;;;;13.70;5.78;;;;;;;10.96;68.06;100144.42;1683258;84;21100;-71
2021/10/17 08:56:14;;;;;;;11.00;5.58;;;;;;;11.01;67.69;100148.55;1707261;84;20932;-73
2021/10/17 08:58:42;;;;;;;12.63;7.50;;;;;;;11.04;67.36;100151.56;1770273;80;21047;-70
2021/10/17 09:01:16;;;;;;;10.23;6.33;;;;;;;11.08;67.61;100156.75;1750657;81;21042;-70
2021/10/17 09:03:55;;;;;;;8.65;5.12;;;;;;;11.12;67.18;100143.13;1772818;78;21540;-73
2021/10/17 09:06:27;;;;;;;10.90;5.65;;;;;;;11.19;67.12;100146.47;1801435;79;20963;-73
2021/10/17 09:09:15;;;;;;;12.63;8.20;;;;;;;11.30;67.00;100148.81;1801311;79;21086;-71
2021/10/17 09:11:57;;;;;;;9.08;5.85;;;;;;;11.40;66.41;100146.82;1800602;79;21070;-70
2021/10/17 09:14:24;;;;;;;12.50;5.65;;;;;;;11.45;65.39;100144.21;1781745;79;21122;-71
2021/10/17 09:16:54;;;;;;;12.95;6.22;;;;;;;11.42;65.02;100152.77;1801988;79;21006;-75
2021/10/17 09:19:29;;;;;;;11.43;5.78;;;;;;;11.36;65.24;100146.50;1801532;79;20952;-72
2021/10/17 09:22:03;;;;;;;11.38;5.40;;;;;;;11.34;65.40;100149.42;1802157;79;21390;-70
2021/10/17 09:24:37;;;;;;;10.78;5.92;;;;;;;11.35;65.34;100158.33;1795053;78;21494;-71
2021/10/17 09:27:11;;;;;;;13.22;4.87;;;;;;;11.38;64.98;100134.41;1837908;78;26881;-70
2021/10/17 09:29:39;;;;;;;11.60;7.00;;;;;;;11.45;65.02;100132.09;1837594;77;21014;-68
2021/10/17 09:32:12;;;;;;;14.95;5.80;;;;;;;11.52;65.00;100131.38;1800706;79;20986;-70
2021/10/17 09:34:39;;;;;;;10.70;7.00;;;;;;;11.58;64.87;100151.44;1801848;79;20967;-69
2021/10/17 09:37:12;;;;;;;11.78;6.60;;;;;;;11.61;63.46;100147.42;1781241;79;21492;-69
2021/10/17 09:40:19;;;;;;;9.28;5.40;;;;;;;11.61;63.25;100136.64;1781555;79;21492;-69
2021/10/17 09:43:24;;;;;;;12.10;5.58;;;;;;;11.55;63.44;100131.73;1798394;78;21261;-76
2021/10/17 09:46:11;;;;;;;11.03;5.30;;;;;;;11.49;63.72;100120.58;1801211;79;21524;-73
2021/10/17 09:48:38;;;;;;;19.52;6.28;;;;;;;11.47;63.27;100122.69;1787694;78;21541;-70
2021/10/17 09:51:10;;;;;;;11.20;6.30;;;;;;;11.49;63.44;100113.03;1837718;78;20988;-70
2021/10/17 09:53:47;;;;;;;8.10;4.50;;;;;;;11.56;63.48;100118.52;1835755;77;26606;-70
2021/10/17 09:56:25;;;;;;;8.35;5.00;;;;;;;11.64;63.25;100114.62;1804817;78;21057;-71
2021/10/17 09:58:54;;;;;;;8.60;6.10;;;;;;;11.67;62.81;100104.16;1832807;78;20945;-69
2021/10/17 10:01:23;;;;;;;7.83;5.35;;;;;;;11.69;62.86;100124.13;1791357;79;21479;-71
2021/10/17 10:03:51;;;;;;;13.10;6.12;;;;;;;11.70;62.30;100111.73;1787508;80;21044;-70
2021/10/17 10:06:18;;;;;;;8.50;6.12;;;;;;;11.73;62.55;100107.78;1788040;79;21017;-70
2021/10/17 10:08:45;;;;;;;8.93;5.87;;;;;;;11.73;62.55;100112.64;1776525;79;21901;-72
2021/10/17 10:11:15;;;;;;;11.28;5.37;;;;;;;11.75;61.98;100113.72;1799146;79;21555;-69
2021/10/17 10:13:41;;;;;;;11.30;6.35;;;;;;;11.73;61.59;100130.68;1799030;79;21002;-72
2021/10/17 10:16:07;;;;;;;10.98;6.10;;;;;;;11.71;61.99;100115.25;1781201;79;21123;-69
2021/10/17 10:18:36;;;;;;;14.00;6.85;;;;;;;11.69;61.97;100103.39;1799463;79;21473;-73
2021/10/17 10:21:02;;;;;;;15.20;6.97;;;;;;;11.69;62.25;100107.43;1781133;79;21156;-72
2021/10/17 10:23:28;;;;;;;12.20;5.97;;;;;;;11.72;62.33;100103.41;1780925;79;21560;-71
2021/10/17 10:25:55;;;;;;;8.98;5.80;;;;;;;11.74;62.15;100108.89;1799093;79;21572;-70
2021/10/17 10:28:25;;;;;;;10.68;5.62;;;;;;;11.74;61.71;100099.45;1792085;78;21040;-70
2021/10/17 10:30:51;;;;;;;13.43;7.15;;;;;;;11.76;61.38;100100.53;1832558;77;20913;-71
2021/10/17 10:33:20;;;;;;;10.75;5.85;;;;;;;11.77;61.11;100096.78;1832536;78;21535;-70
2021/10/17 10:36:17;;;;;;;7.25;4.72;;;;;;;11.78;60.71;100103.28;1832688;78;21003;-69
2021/10/17 10:38:56;;;;;;;;;;;;;;;11.79;59.24;100108.14;1833690;78;20952;-70
2021/10/17 10:41:28;;;;;;;8.88;4.85;;;;;;;11.77;58.15;100096.78;1832384;78;20199;-71
2021/10/17 10:44:16;;;;;;;5.93;4.10;;;;;;;11.73;56.60;100098.34;1804773;78;21141;-71
2021/10/17 10:46:43;;;;;;;9.48;4.40;;;;;;;11.69;56.62;100095.30;1823888;78;21132;-70
2021/10/17 10:49:10;;;;;;;10.28;4.70;;;;;;;11.68;56.88;100097.71;1803284;77;20975;-69
2021/10/17 10:51:41;;;;;;;10.82;5.85;;;;;;;11.66;55.51;100097.66;1799462;79;20975;-71
2021/10/17 10:54:27;;;;;;;6.40;4.40;;;;;;;11.64;55.85;100089.84;1802922;79;21010;-69
2021/10/17 10:56:56;;;;;;;9.83;5.05;;;;;;;11.64;55.41;100099.80;1782367;79;21012;-71
2021/10/17 10:59:28;;;;;;;8.25;4.05;;;;;;;11.66;55.63;100087.70;1766405;81;21128;-69
2021/10/17 11:02:17;;;;;;;10.90;4.65;;;;;;;11.70;55.24;100084.00;1714930;82;21517;-71
2021/10/17 11:04:45;;;;;;;8.08;4.72;;;;;;;11.74;55.09;100082.47;1744069;82;21015;-70
2021/10/17 11:07:39;;;;;;;13.75;5.22;;;;;;;11.78;54.31;100078.21;1742416;81;21067;-69
2021/10/17 11:10:30;;;;;;;8.63;5.03;;;;;;;11.82;54.51;100083.91;1741543;81;21003;-69
2021/10/17 11:12:58;;;;;;;9.95;4.92;;;;;;;11.84;54.47;100084.49;1798803;79;21193;-71
2021/10/17 11:15:38;;;;;;;10.10;5.40;;;;;;;11.83;54.58;100082.33;1767512;81;20966;-68
2021/10/17 11:18:07;;;;;;;6.58;5.08;;;;;;;11.80;54.52;100080.92;1767532;81;21046;-70
2021/10/17 11:20:41;;;;;;;9.45;5.08;;;;;;;11.77;54.38;100087.35;1720698;82;21658;-70
2021/10/17 11:23:23;;;;;;;8.30;5.00;;;;;;;11.74;54.56;100075.20;1778769;80;21035;-72
2021/10/17 11:25:58;;;;;;;10.32;6.12;;;;;;;11.76;54.86;100070.89;1750010;80;21771;-74